sensor_id;sensor_type;location;lat;lon;timestamp;P1;durP1;ratioP1;P2;durP2;ratioP2
22774;SDS011;11554;51.106;3.684;2024-03-17T00:00:01;10.60;;;5.50;;
22774;SDS011;11554;51.106;3.684;2024-03-17T00:05:00;10.60;;;5.50;;
22774;SDS011;11554;51.106;3.684;2024-03-17T00:10:00;8.60;;;5.50;;
22774;SDS011;11554;51.106;3.684;2024-03-17T00:15:00;8.60;;;5.50;;
22774;SDS011;11554;51.106;3.684;2024-03-17T00:20:00;10.70;;;5.60;;
22774;SDS011;11554;51.106;3.684;2024-03-17T00:25:01;10.70;;;5.60;;
22774;SDS011;11554;51.106;3.684;2024-03-17T00:30:00;9.40;;;6.00;;
22774;SDS011;11554;51.106;3.684;2024-03-17T00:35:00;9.40;;;6.00;;
22774;SDS011;11554;51.106;3.684;2024-03-17T00:40:00;10.10;;;5.80;;
22774;SDS011;11554;51.106;3.684;2024-03-17T00:45:00;10.10;;;5.80;;
22774;SDS011;11554;51.106;3.684;2024-03-17T00:50:00;10.90;;;6.10;;
22774;SDS011;11554;51.106;3.684;2024-03-17T00:55:00;10.90;;;6.10;;
22774;SDS011;11554;51.106;3.684;2024-03-17T01:00:00;9.60;;;5.90;;
22774;SDS011;11554;51.106;3.684;2024-03-17T01:05:00;9.60;;;5.90;;
22774;SDS011;11554;51.106;3.684;2024-03-17T01:10:00;10.40;;;5.90;;
22774;SDS011;11554;51.106;3.684;2024-03-17T01:15:03;10.40;;;5.90;;
22774;SDS011;11554;51.106;3.684;2024-03-17T01:20:00;8.90;;;6.00;;
22774;SDS011;11554;51.106;3.684;2024-03-17T01:25:00;8.90;;;6.00;;
22774;SDS011;11554;51.106;3.684;2024-03-17T01:30:00;10.80;;;5.80;;
22774;SDS011;11554;51.106;3.684;2024-03-17T01:35:00;10.80;;;5.80;;
22774;SDS011;11554;51.106;3.684;2024-03-17T01:40:00;11.60;;;6.10;;
22774;SDS011;11554;51.106;3.684;2024-03-17T01:45:00;11.60;;;6.10;;
22774;SDS011;11554;51.106;3.684;2024-03-17T01:50:00;7.80;;;5.70;;
22774;SDS011;11554;51.106;3.684;2024-03-17T01:55:00;7.80;;;5.70;;
22774;SDS011;11554;51.106;3.684;2024-03-17T02:00:00;9.50;;;6.20;;
22774;SDS011;11554;51.106;3.684;2024-03-17T02:05:00;9.50;;;6.20;;
22774;SDS011;11554;51.106;3.684;2024-03-17T02:10:00;10.10;;;5.90;;
22774;SDS011;11554;51.106;3.684;2024-03-17T02:15:01;10.10;;;5.90;;
22774;SDS011;11554;51.106;3.684;2024-03-17T02:20:01;9.50;;;5.40;;
22774;SDS011;11554;51.106;3.684;2024-03-17T02:25:00;9.50;;;5.40;;
22774;SDS011;11554;51.106;3.684;2024-03-17T02:30:00;9.90;;;5.70;;
22774;SDS011;11554;51.106;3.684;2024-03-17T02:35:00;9.90;;;5.70;;
22774;SDS011;11554;51.106;3.684;2024-03-17T02:40:00;9.00;;;5.70;;
22774;SDS011;11554;51.106;3.684;2024-03-17T02:45:00;9.00;;;5.70;;
22774;SDS011;11554;51.106;3.684;2024-03-17T02:50:00;8.50;;;5.90;;
22774;SDS011;11554;51.106;3.684;2024-03-17T02:55:00;8.50;;;5.90;;
22774;SDS011;11554;51.106;3.684;2024-03-17T03:00:00;8.50;;;5.70;;
22774;SDS011;11554;51.106;3.684;2024-03-17T03:05:00;8.50;;;5.70;;
22774;SDS011;11554;51.106;3.684;2024-03-17T03:10:00;11.20;;;5.40;;
22774;SDS011;11554;51.106;3.684;2024-03-17T03:15:00;11.20;;;5.40;;
22774;SDS011;11554;51.106;3.684;2024-03-17T03:20:00;8.50;;;5.60;;
22774;SDS011;11554;51.106;3.684;2024-03-17T03:25:00;8.50;;;5.60;;
22774;SDS011;11554;51.106;3.684;2024-03-17T03:30:00;10.40;;;5.60;;
22774;SDS011;11554;51.106;3.684;2024-03-17T03:35:00;10.40;;;5.60;;
22774;SDS011;11554;51.106;3.684;2024-03-17T03:40:00;9.30;;;5.80;;
22774;SDS011;11554;51.106;3.684;2024-03-17T03:45:00;9.30;;;5.80;;
22774;SDS011;11554;51.106;3.684;2024-03-17T03:50:00;10.30;;;5.20;;
22774;SDS011;11554;51.106;3.684;2024-03-17T03:55:00;10.30;;;5.20;;
22774;SDS011;11554;51.106;3.684;2024-03-17T04:00:00;10.30;;;5.90;;
22774;SDS011;11554;51.106;3.684;2024-03-17T04:05:00;10.30;;;5.90;;
22774;SDS011;11554;51.106;3.684;2024-03-17T04:10:00;10.10;;;5.50;;
22774;SDS011;11554;51.106;3.684;2024-03-17T04:15:01;10.10;;;5.50;;
22774;SDS011;11554;51.106;3.684;2024-03-17T04:20:00;11.50;;;5.60;;
22774;SDS011;11554;51.106;3.684;2024-03-17T04:25:00;11.50;;;5.60;;
22774;SDS011;11554;51.106;3.684;2024-03-17T04:30:00;9.40;;;6.00;;
22774;SDS011;11554;51.106;3.684;2024-03-17T04:35:00;9.40;;;6.00;;
22774;SDS011;11554;51.106;3.684;2024-03-17T04:40:00;10.10;;;6.00;;
22774;SDS011;11554;51.106;3.684;2024-03-17T04:45:00;10.10;;;6.00;;
22774;SDS011;11554;51.106;3.684;2024-03-17T04:50:00;9.30;;;6.10;;
22774;SDS011;11554;51.106;3.684;2024-03-17T04:55:00;9.30;;;6.10;;
22774;SDS011;11554;51.106;3.684;2024-03-17T05:00:00;9.80;;;5.70;;
22774;SDS011;11554;51.106;3.684;2024-03-17T05:05:00;9.80;;;5.70;;
22774;SDS011;11554;51.106;3.684;2024-03-17T05:10:00;8.80;;;5.60;;
22774;SDS011;11554;51.106;3.684;2024-03-17T05:15:00;8.80;;;5.60;;
22774;SDS011;11554;51.106;3.684;2024-03-17T05:20:00;10.10;;;5.70;;
22774;SDS011;11554;51.106;3.684;2024-03-17T05:25:00;10.10;;;5.70;;
22774;SDS011;11554;51.106;3.684;2024-03-17T05:30:00;11.80;;;6.20;;
22774;SDS011;11554;51.106;3.684;2024-03-17T05:35:00;11.80;;;6.20;;
22774;SDS011;11554;51.106;3.684;2024-03-17T05:40:00;9.00;;;5.90;;
22774;SDS011;11554;51.106;3.684;2024-03-17T05:45:00;9.00;;;5.90;;
22774;SDS011;11554;51.106;3.684;2024-03-17T05:50:00;12.50;;;6.40;;
22774;SDS011;11554;51.106;3.684;2024-03-17T05:55:00;12.50;;;6.40;;
22774;SDS011;11554;51.106;3.684;2024-03-17T06:00:00;10.30;;;6.10;;
22774;SDS011;11554;51.106;3.684;2024-03-17T06:05:00;10.30;;;6.10;;
22774;SDS011;11554;51.106;3.684;2024-03-17T06:10:00;8.00;;;5.20;;
22774;SDS011;11554;51.106;3.684;2024-03-17T06:15:02;8.00;;;5.20;;
22774;SDS011;11554;51.106;3.684;2024-03-17T06:20:00;29.90;;;14.50;;
22774;SDS011;11554;51.106;3.684;2024-03-17T06:25:00;29.90;;;14.50;;
22774;SDS011;11554;51.106;3.684;2024-03-17T06:30:00;9.70;;;5.70;;
22774;SDS011;11554;51.106;3.684;2024-03-17T06:35:01;9.70;;;5.70;;
22774;SDS011;11554;51.106;3.684;2024-03-17T06:40:00;8.30;;;5.00;;
22774;SDS011;11554;51.106;3.684;2024-03-17T06:45:00;8.30;;;5.00;;
22774;SDS011;11554;51.106;3.684;2024-03-17T06:50:00;8.70;;;5.50;;
22774;SDS011;11554;51.106;3.684;2024-03-17T06:55:00;8.70;;;5.50;;
22774;SDS011;11554;51.106;3.684;2024-03-17T07:00:00;10.70;;;5.70;;
22774;SDS011;11554;51.106;3.684;2024-03-17T07:05:00;10.70;;;5.70;;
22774;SDS011;11554;51.106;3.684;2024-03-17T07:10:00;9.70;;;5.00;;
22774;SDS011;11554;51.106;3.684;2024-03-17T07:15:00;9.70;;;5.00;;
22774;SDS011;11554;51.106;3.684;2024-03-17T07:20:01;10.30;;;5.90;;
22774;SDS011;11554;51.106;3.684;2024-03-17T07:25:00;10.30;;;5.90;;
22774;SDS011;11554;51.106;3.684;2024-03-17T07:30:00;8.80;;;5.50;;
22774;SDS011;11554;51.106;3.684;2024-03-17T07:35:00;8.80;;;5.50;;
22774;SDS011;11554;51.106;3.684;2024-03-17T07:40:00;11.40;;;5.20;;
22774;SDS011;11554;51.106;3.684;2024-03-17T07:45:00;11.40;;;5.20;;
22774;SDS011;11554;51.106;3.684;2024-03-17T07:50:00;10.00;;;5.20;;
22774;SDS011;11554;51.106;3.684;2024-03-17T07:55:00;10.00;;;5.20;;
22774;SDS011;11554;51.106;3.684;2024-03-17T08:00:00;11.10;;;5.20;;
22774;SDS011;11554;51.106;3.684;2024-03-17T08:05:00;11.10;;;5.20;;
22774;SDS011;11554;51.106;3.684;2024-03-17T08:10:00;11.50;;;5.60;;
22774;SDS011;11554;51.106;3.684;2024-03-17T08:15:00;11.50;;;5.60;;
22774;SDS011;11554;51.106;3.684;2024-03-17T08:20:00;10.00;;;5.80;;
22774;SDS011;11554;51.106;3.684;2024-03-17T08:25:00;10.00;;;5.80;;
22774;SDS011;11554;51.106;3.684;2024-03-17T08:30:00;10.40;;;5.80;;
22774;SDS011;11554;51.106;3.684;2024-03-17T08:35:00;10.40;;;5.80;;
22774;SDS011;11554;51.106;3.684;2024-03-17T08:40:00;10.40;;;5.60;;
22774;SDS011;11554;51.106;3.684;2024-03-17T08:45:00;10.40;;;5.60;;
22774;SDS011;11554;51.106;3.684;2024-03-17T08:50:00;11.60;;;5.90;;
22774;SDS011;11554;51.106;3.684;2024-03-17T08:55:00;11.60;;;5.90;;
22774;SDS011;11554;51.106;3.684;2024-03-17T09:00:00;9.10;;;5.20;;
22774;SDS011;11554;51.106;3.684;2024-03-17T09:05:00;9.10;;;5.20;;
22774;SDS011;11554;51.106;3.684;2024-03-17T09:10:00;10.90;;;5.40;;
22774;SDS011;11554;51.106;3.684;2024-03-17T09:15:00;10.90;;;5.40;;
22774;SDS011;11554;51.106;3.684;2024-03-17T09:20:00;11.80;;;5.50;;
22774;SDS011;11554;51.106;3.684;2024-03-17T09:25:00;11.80;;;5.50;;
22774;SDS011;11554;51.106;3.684;2024-03-17T09:30:00;12.40;;;5.50;;
22774;SDS011;11554;51.106;3.684;2024-03-17T09:35:00;12.40;;;5.50;;
22774;SDS011;11554;51.106;3.684;2024-03-17T09:40:00;11.70;;;4.80;;
22774;SDS011;11554;51.106;3.684;2024-03-17T09:45:00;11.70;;;4.80;;
22774;SDS011;11554;51.106;3.684;2024-03-17T09:50:00;9.20;;;4.60;;
22774;SDS011;11554;51.106;3.684;2024-03-17T09:55:05;9.20;;;4.60;;
22774;SDS011;11554;51.106;3.684;2024-03-17T10:00:04;13.90;;;5.10;;
22774;SDS011;11554;51.106;3.684;2024-03-17T10:05:00;13.90;;;5.10;;
22774;SDS011;11554;51.106;3.684;2024-03-17T10:15:01;13.10;;;5.10;;
22774;SDS011;11554;51.106;3.684;2024-03-17T10:25:00;9.40;;;4.60;;
22774;SDS011;11554;51.106;3.684;2024-03-17T10:30:00;8.50;;;4.30;;
22774;SDS011;11554;51.106;3.684;2024-03-17T10:35:00;8.50;;;4.30;;
22774;SDS011;11554;51.106;3.684;2024-03-17T10:40:03;9.40;;;4.50;;
22774;SDS011;11554;51.106;3.684;2024-03-17T10:45:00;9.40;;;4.50;;
22774;SDS011;11554;51.106;3.684;2024-03-17T10:50:01;10.60;;;4.10;;
22774;SDS011;11554;51.106;3.684;2024-03-17T10:55:07;10.60;;;4.10;;
22774;SDS011;11554;51.106;3.684;2024-03-17T11:00:02;11.10;;;4.90;;
22774;SDS011;11554;51.106;3.684;2024-03-17T11:05:03;11.10;;;4.90;;
22774;SDS011;11554;51.106;3.684;2024-03-17T11:10:00;9.90;;;4.80;;
22774;SDS011;11554;51.106;3.684;2024-03-17T11:40:00;8.70;;;4.10;;
22774;SDS011;11554;51.106;3.684;2024-03-17T11:45:02;8.70;;;4.10;;
22774;SDS011;11554;51.106;3.684;2024-03-17T11:50:02;10.50;;;4.20;;
22774;SDS011;11554;51.106;3.684;2024-03-17T11:55:00;10.50;;;4.20;;
22774;SDS011;11554;51.106;3.684;2024-03-17T12:00:00;9.10;;;3.40;;
22774;SDS011;11554;51.106;3.684;2024-03-17T12:05:01;9.10;;;3.40;;
22774;SDS011;11554;51.106;3.684;2024-03-17T12:10:00;8.90;;;2.90;;
22774;SDS011;11554;51.106;3.684;2024-03-17T12:15:01;8.90;;;2.90;;
22774;SDS011;11554;51.106;3.684;2024-03-17T12:20:00;5.10;;;2.00;;
22774;SDS011;11554;51.106;3.684;2024-03-17T12:25:00;5.10;;;2.00;;
22774;SDS011;11554;51.106;3.684;2024-03-17T12:30:00;8.20;;;2.00;;
22774;SDS011;11554;51.106;3.684;2024-03-17T12:35:00;8.20;;;2.00;;
22774;SDS011;11554;51.106;3.684;2024-03-17T12:40:00;6.00;;;1.70;;
22774;SDS011;11554;51.106;3.684;2024-03-17T12:45:00;6.00;;;1.70;;
22774;SDS011;11554;51.106;3.684;2024-03-17T12:50:01;7.40;;;2.00;;
22774;SDS011;11554;51.106;3.684;2024-03-17T12:55:01;7.40;;;2.00;;
22774;SDS011;11554;51.106;3.684;2024-03-17T13:00:00;4.80;;;1.80;;
22774;SDS011;11554;51.106;3.684;2024-03-17T13:10:00;5.10;;;1.80;;
22774;SDS011;11554;51.106;3.684;2024-03-17T13:15:00;5.10;;;1.80;;
22774;SDS011;11554;51.106;3.684;2024-03-17T13:20:00;7.10;;;1.60;;
22774;SDS011;11554;51.106;3.684;2024-03-17T13:25:00;7.10;;;1.60;;
22774;SDS011;11554;51.106;3.684;2024-03-17T13:30:00;5.00;;;1.30;;
22774;SDS011;11554;51.106;3.684;2024-03-17T13:35:00;5.00;;;1.30;;
22774;SDS011;11554;51.106;3.684;2024-03-17T13:40:00;6.30;;;1.30;;
22774;SDS011;11554;51.106;3.684;2024-03-17T13:45:00;6.30;;;1.30;;
22774;SDS011;11554;51.106;3.684;2024-03-17T13:50:00;6.20;;;2.00;;
22774;SDS011;11554;51.106;3.684;2024-03-17T13:55:00;6.20;;;2.00;;
22774;SDS011;11554;51.106;3.684;2024-03-17T14:00:00;6.60;;;1.50;;
22774;SDS011;11554;51.106;3.684;2024-03-17T14:05:00;6.60;;;1.50;;
22774;SDS011;11554;51.106;3.684;2024-03-17T14:10:00;6.50;;;1.40;;
22774;SDS011;11554;51.106;3.684;2024-03-17T14:15:00;6.50;;;1.40;;
22774;SDS011;11554;51.106;3.684;2024-03-17T14:20:00;5.40;;;1.50;;
22774;SDS011;11554;51.106;3.684;2024-03-17T14:25:00;5.40;;;1.50;;
22774;SDS011;11554;51.106;3.684;2024-03-17T14:30:00;7.40;;;1.20;;
22774;SDS011;11554;51.106;3.684;2024-03-17T14:35:00;7.40;;;1.20;;
22774;SDS011;11554;51.106;3.684;2024-03-17T14:40:00;6.10;;;1.20;;
22774;SDS011;11554;51.106;3.684;2024-03-17T14:45:00;6.10;;;1.20;;
22774;SDS011;11554;51.106;3.684;2024-03-17T14:50:00;6.40;;;1.70;;
22774;SDS011;11554;51.106;3.684;2024-03-17T14:55:00;6.40;;;1.70;;
22774;SDS011;11554;51.106;3.684;2024-03-17T15:00:00;5.80;;;1.70;;
22774;SDS011;11554;51.106;3.684;2024-03-17T15:05:00;5.80;;;1.70;;
22774;SDS011;11554;51.106;3.684;2024-03-17T15:10:00;6.50;;;2.10;;
22774;SDS011;11554;51.106;3.684;2024-03-17T15:15:00;6.50;;;2.10;;
22774;SDS011;11554;51.106;3.684;2024-03-17T15:20:00;5.80;;;1.70;;
22774;SDS011;11554;51.106;3.684;2024-03-17T15:25:00;5.80;;;1.70;;
22774;SDS011;11554;51.106;3.684;2024-03-17T15:30:00;5.50;;;1.70;;
22774;SDS011;11554;51.106;3.684;2024-03-17T15:35:00;5.50;;;1.70;;
22774;SDS011;11554;51.106;3.684;2024-03-17T15:40:00;6.80;;;1.90;;
22774;SDS011;11554;51.106;3.684;2024-03-17T15:45:00;6.80;;;1.90;;
22774;SDS011;11554;51.106;3.684;2024-03-17T15:50:00;6.30;;;1.90;;
22774;SDS011;11554;51.106;3.684;2024-03-17T15:55:01;6.30;;;1.90;;
22774;SDS011;11554;51.106;3.684;2024-03-17T16:00:00;5.20;;;1.60;;
22774;SDS011;11554;51.106;3.684;2024-03-17T16:05:01;5.20;;;1.60;;
22774;SDS011;11554;51.106;3.684;2024-03-17T16:10:00;5.50;;;1.90;;
22774;SDS011;11554;51.106;3.684;2024-03-17T16:15:00;5.50;;;1.90;;
22774;SDS011;11554;51.106;3.684;2024-03-17T16:20:00;6.50;;;2.10;;
22774;SDS011;11554;51.106;3.684;2024-03-17T16:25:00;6.50;;;2.10;;
22774;SDS011;11554;51.106;3.684;2024-03-17T16:30:00;5.00;;;2.00;;
22774;SDS011;11554;51.106;3.684;2024-03-17T16:35:00;5.00;;;2.00;;
22774;SDS011;11554;51.106;3.684;2024-03-17T16:40:00;7.40;;;2.40;;
22774;SDS011;11554;51.106;3.684;2024-03-17T16:45:05;7.40;;;2.40;;
22774;SDS011;11554;51.106;3.684;2024-03-17T16:50:02;6.10;;;2.40;;
22774;SDS011;11554;51.106;3.684;2024-03-17T16:55:00;6.10;;;2.40;;
22774;SDS011;11554;51.106;3.684;2024-03-17T17:00:00;4.90;;;1.80;;
22774;SDS011;11554;51.106;3.684;2024-03-17T17:05:00;4.90;;;1.80;;
22774;SDS011;11554;51.106;3.684;2024-03-17T17:10:00;4.10;;;2.10;;
22774;SDS011;11554;51.106;3.684;2024-03-17T17:15:00;4.10;;;2.10;;
22774;SDS011;11554;51.106;3.684;2024-03-17T17:20:00;4.80;;;2.50;;
22774;SDS011;11554;51.106;3.684;2024-03-17T17:25:00;4.80;;;2.50;;
22774;SDS011;11554;51.106;3.684;2024-03-17T17:30:00;4.20;;;2.20;;
22774;SDS011;11554;51.106;3.684;2024-03-17T17:35:00;4.20;;;2.20;;
22774;SDS011;11554;51.106;3.684;2024-03-17T17:40:00;3.60;;;2.30;;
22774;SDS011;11554;51.106;3.684;2024-03-17T17:45:00;3.60;;;2.30;;
22774;SDS011;11554;51.106;3.684;2024-03-17T17:50:00;5.10;;;2.30;;
22774;SDS011;11554;51.106;3.684;2024-03-17T17:55:00;5.10;;;2.30;;
22774;SDS011;11554;51.106;3.684;2024-03-17T18:00:00;6.30;;;4.20;;
22774;SDS011;11554;51.106;3.684;2024-03-17T18:05:00;6.30;;;4.20;;
22774;SDS011;11554;51.106;3.684;2024-03-17T18:10:00;4.90;;;3.10;;
22774;SDS011;11554;51.106;3.684;2024-03-17T18:15:00;4.90;;;3.10;;
22774;SDS011;11554;51.106;3.684;2024-03-17T18:20:00;3.80;;;2.80;;
22774;SDS011;11554;51.106;3.684;2024-03-17T18:25:00;3.80;;;2.80;;
22774;SDS011;11554;51.106;3.684;2024-03-17T18:30:01;6.00;;;3.80;;
22774;SDS011;11554;51.106;3.684;2024-03-17T18:35:00;6.00;;;3.80;;
22774;SDS011;11554;51.106;3.684;2024-03-17T18:40:00;7.30;;;5.70;;
22774;SDS011;11554;51.106;3.684;2024-03-17T18:45:00;7.30;;;5.70;;
22774;SDS011;11554;51.106;3.684;2024-03-17T18:50:00;7.50;;;5.70;;
22774;SDS011;11554;51.106;3.684;2024-03-17T18:55:00;7.50;;;5.70;;
22774;SDS011;11554;51.106;3.684;2024-03-17T19:00:00;10.70;;;6.40;;
22774;SDS011;11554;51.106;3.684;2024-03-17T19:05:00;10.70;;;6.40;;
22774;SDS011;11554;51.106;3.684;2024-03-17T19:10:00;8.70;;;6.10;;
22774;SDS011;11554;51.106;3.684;2024-03-17T19:15:01;8.70;;;6.10;;
22774;SDS011;11554;51.106;3.684;2024-03-17T19:20:01;12.20;;;9.50;;
22774;SDS011;11554;51.106;3.684;2024-03-17T19:25:00;12.20;;;9.50;;
22774;SDS011;11554;51.106;3.684;2024-03-17T19:30:00;12.80;;;9.70;;
22774;SDS011;11554;51.106;3.684;2024-03-17T19:35:00;12.80;;;9.70;;
22774;SDS011;11554;51.106;3.684;2024-03-17T19:40:00;13.30;;;9.40;;
22774;SDS011;11554;51.106;3.684;2024-03-17T19:45:00;13.30;;;9.40;;
22774;SDS011;11554;51.106;3.684;2024-03-17T19:50:00;16.20;;;10.90;;
22774;SDS011;11554;51.106;3.684;2024-03-17T19:55:00;16.20;;;10.90;;
22774;SDS011;11554;51.106;3.684;2024-03-17T20:00:00;15.60;;;11.00;;
22774;SDS011;11554;51.106;3.684;2024-03-17T20:05:00;15.60;;;11.00;;
22774;SDS011;11554;51.106;3.684;2024-03-17T20:10:00;18.80;;;12.40;;
22774;SDS011;11554;51.106;3.684;2024-03-17T20:15:00;18.80;;;12.40;;
22774;SDS011;11554;51.106;3.684;2024-03-17T20:20:00;13.10;;;10.10;;
22774;SDS011;11554;51.106;3.684;2024-03-17T20:25:00;13.10;;;10.10;;
22774;SDS011;11554;51.106;3.684;2024-03-17T20:30:00;21.10;;;14.50;;
22774;SDS011;11554;51.106;3.684;2024-03-17T20:35:00;21.10;;;14.50;;
22774;SDS011;11554;51.106;3.684;2024-03-17T20:40:00;8.90;;;7.70;;
22774;SDS011;11554;51.106;3.684;2024-03-17T20:45:01;8.90;;;7.70;;
22774;SDS011;11554;51.106;3.684;2024-03-17T20:50:00;8.80;;;7.30;;
22774;SDS011;11554;51.106;3.684;2024-03-17T20:55:00;8.80;;;7.30;;
22774;SDS011;11554;51.106;3.684;2024-03-17T21:00:00;8.90;;;7.50;;
22774;SDS011;11554;51.106;3.684;2024-03-17T21:05:00;8.90;;;7.50;;
22774;SDS011;11554;51.106;3.684;2024-03-17T21:10:00;11.90;;;7.70;;
22774;SDS011;11554;51.106;3.684;2024-03-17T21:15:00;11.90;;;7.70;;
22774;SDS011;11554;51.106;3.684;2024-03-17T21:20:00;10.00;;;8.10;;
22774;SDS011;11554;51.106;3.684;2024-03-17T21:25:00;10.00;;;8.10;;
22774;SDS011;11554;51.106;3.684;2024-03-17T21:30:01;10.20;;;7.60;;
22774;SDS011;11554;51.106;3.684;2024-03-17T21:35:00;10.20;;;7.60;;
22774;SDS011;11554;51.106;3.684;2024-03-17T21:40:00;10.30;;;8.10;;
22774;SDS011;11554;51.106;3.684;2024-03-17T21:45:00;10.30;;;8.10;;
22774;SDS011;11554;51.106;3.684;2024-03-17T21:50:00;9.80;;;7.60;;
22774;SDS011;11554;51.106;3.684;2024-03-17T21:55:00;9.80;;;7.60;;
22774;SDS011;11554;51.106;3.684;2024-03-17T22:00:00;9.50;;;7.80;;
22774;SDS011;11554;51.106;3.684;2024-03-17T22:05:00;9.50;;;7.80;;
22774;SDS011;11554;51.106;3.684;2024-03-17T22:10:00;10.60;;;7.20;;
22774;SDS011;11554;51.106;3.684;2024-03-17T22:15:00;10.60;;;7.20;;
22774;SDS011;11554;51.106;3.684;2024-03-17T22:20:01;10.80;;;7.30;;
22774;SDS011;11554;51.106;3.684;2024-03-17T22:25:00;10.80;;;7.30;;
22774;SDS011;11554;51.106;3.684;2024-03-17T22:30:00;9.20;;;7.30;;
22774;SDS011;11554;51.106;3.684;2024-03-17T22:35:00;9.20;;;7.30;;
22774;SDS011;11554;51.106;3.684;2024-03-17T22:40:00;10.90;;;7.10;;
22774;SDS011;11554;51.106;3.684;2024-03-17T22:45:00;10.90;;;7.10;;
22774;SDS011;11554;51.106;3.684;2024-03-17T22:50:00;8.00;;;6.30;;
22774;SDS011;11554;51.106;3.684;2024-03-17T22:55:00;8.00;;;6.30;;
22774;SDS011;11554;51.106;3.684;2024-03-17T23:00:00;10.30;;;6.80;;
22774;SDS011;11554;51.106;3.684;2024-03-17T23:05:00;10.30;;;6.80;;
22774;SDS011;11554;51.106;3.684;2024-03-17T23:10:00;10.50;;;7.70;;
22774;SDS011;11554;51.106;3.684;2024-03-17T23:15:00;10.50;;;7.70;;
22774;SDS011;11554;51.106;3.684;2024-03-17T23:20:00;11.60;;;8.70;;
22774;SDS011;11554;51.106;3.684;2024-03-17T23:25:01;11.60;;;8.70;;
22774;SDS011;11554;51.106;3.684;2024-03-17T23:30:00;10.40;;;7.30;;
22774;SDS011;11554;51.106;3.684;2024-03-17T23:35:00;10.40;;;7.30;;
22774;SDS011;11554;51.106;3.684;2024-03-17T23:40:00;11.80;;;7.70;;
22774;SDS011;11554;51.106;3.684;2024-03-17T23:45:02;11.80;;;7.70;;
22774;SDS011;11554;51.106;3.684;2024-03-17T23:50:01;11.50;;;7.80;;
22774;SDS011;11554;51.106;3.684;2024-03-17T23:55:00;11.50;;;7.80;;
